sensor_id;sensor_type;location;lat;lon;timestamp;P1;durP1;ratioP1;P2;durP2;ratioP2
56577;SDS011;42461;53.192;5.646;2022-09-30T00:01:15;6.93;;;5.70;;
56577;SDS011;42461;53.192;5.646;2022-09-30T00:03:41;9.82;;;7.57;;
56577;SDS011;42461;53.192;5.646;2022-09-30T00:06:07;12.18;;;8.68;;
56577;SDS011;42461;53.192;5.646;2022-09-30T00:08:34;9.82;;;6.75;;
56577;SDS011;42461;53.192;5.646;2022-09-30T00:11:01;6.38;;;5.18;;
56577;SDS011;42461;53.192;5.646;2022-09-30T00:13:28;2.92;;;2.63;;
56577;SDS011;42461;53.192;5.646;2022-09-30T00:15:54;2.22;;;2.03;;
56577;SDS011;42461;53.192;5.646;2022-09-30T00:18:20;4.60;;;2.33;;
56577;SDS011;42461;53.192;5.646;2022-09-30T00:20:46;2.78;;;2.50;;
56577;SDS011;42461;53.192;5.646;2022-09-30T00:23:12;3.05;;;2.40;;
56577;SDS011;42461;53.192;5.646;2022-09-30T00:25:38;3.55;;;2.17;;
56577;SDS011;42461;53.192;5.646;2022-09-30T00:28:04;2.22;;;2.03;;
56577;SDS011;42461;53.192;5.646;2022-09-30T00:30:32;2.00;;;1.90;;
56577;SDS011;42461;53.192;5.646;2022-09-30T00:32:59;2.10;;;1.90;;
56577;SDS011;42461;53.192;5.646;2022-09-30T00:35:25;1.60;;;1.50;;
56577;SDS011;42461;53.192;5.646;2022-09-30T00:37:51;1.77;;;1.67;;
56577;SDS011;42461;53.192;5.646;2022-09-30T00:40:19;1.80;;;1.60;;
56577;SDS011;42461;53.192;5.646;2022-09-30T00:42:45;1.80;;;1.50;;
56577;SDS011;42461;53.192;5.646;2022-09-30T00:45:11;1.98;;;1.77;;
56577;SDS011;42461;53.192;5.646;2022-09-30T00:52:36;2.20;;;1.73;;
56577;SDS011;42461;53.192;5.646;2022-09-30T00:55:03;1.88;;;1.60;;
56577;SDS011;42461;53.192;5.646;2022-09-30T00:57:32;1.90;;;1.80;;
56577;SDS011;42461;53.192;5.646;2022-09-30T00:59:59;4.00;;;1.92;;
56577;SDS011;42461;53.192;5.646;2022-09-30T01:02:25;1.83;;;1.63;;
56577;SDS011;42461;53.192;5.646;2022-09-30T01:04:51;2.05;;;1.80;;
56577;SDS011;42461;53.192;5.646;2022-09-30T01:07:19;1.98;;;1.88;;
56577;SDS011;42461;53.192;5.646;2022-09-30T01:09:45;2.13;;;1.92;;
56577;SDS011;42461;53.192;5.646;2022-09-30T01:12:16;6.07;;;2.75;;
56577;SDS011;42461;53.192;5.646;2022-09-30T01:14:42;11.45;;;7.22;;
56577;SDS011;42461;53.192;5.646;2022-09-30T01:30:13;3.10;;;2.80;;
56577;SDS011;42461;53.192;5.646;2022-09-30T01:32:46;2.90;;;2.30;;
56577;SDS011;42461;53.192;5.646;2022-09-30T01:38:06;2.43;;;1.87;;
56577;SDS011;42461;53.192;5.646;2022-09-30T01:40:36;2.30;;;2.08;;
56577;SDS011;42461;53.192;5.646;2022-09-30T01:51:09;2.30;;;2.10;;
56577;SDS011;42461;53.192;5.646;2022-09-30T01:53:38;2.40;;;2.17;;
56577;SDS011;42461;53.192;5.646;2022-09-30T01:56:19;2.67;;;2.25;;
56577;SDS011;42461;53.192;5.646;2022-09-30T02:01:41;5.30;;;2.55;;
56577;SDS011;42461;53.192;5.646;2022-09-30T02:04:11;2.83;;;2.28;;
56577;SDS011;42461;53.192;5.646;2022-09-30T02:06:39;3.88;;;2.40;;
56577;SDS011;42461;53.192;5.646;2022-09-30T02:09:13;2.97;;;2.17;;
56577;SDS011;42461;53.192;5.646;2022-09-30T02:11:41;3.50;;;2.90;;
56577;SDS011;42461;53.192;5.646;2022-09-30T02:14:09;2.85;;;1.98;;
56577;SDS011;42461;53.192;5.646;2022-09-30T02:16:38;2.42;;;2.10;;
56577;SDS011;42461;53.192;5.646;2022-09-30T02:19:18;2.20;;;2.00;;
56577;SDS011;42461;53.192;5.646;2022-09-30T02:21:46;2.35;;;2.00;;
56577;SDS011;42461;53.192;5.646;2022-09-30T02:24:13;2.25;;;2.05;;
56577;SDS011;42461;53.192;5.646;2022-09-30T02:26:41;2.67;;;2.30;;
56577;SDS011;42461;53.192;5.646;2022-09-30T02:29:14;6.53;;;2.30;;
56577;SDS011;42461;53.192;5.646;2022-09-30T02:31:41;2.45;;;2.08;;
56577;SDS011;42461;53.192;5.646;2022-09-30T02:34:18;6.00;;;2.20;;
56577;SDS011;42461;53.192;5.646;2022-09-30T02:36:47;2.40;;;2.20;;
56577;SDS011;42461;53.192;5.646;2022-09-30T02:39:28;2.20;;;2.00;;
56577;SDS011;42461;53.192;5.646;2022-09-30T02:41:59;2.28;;;2.08;;
56577;SDS011;42461;53.192;5.646;2022-09-30T02:44:26;3.08;;;2.30;;
56577;SDS011;42461;53.192;5.646;2022-09-30T02:49:25;3.30;;;2.40;;
56577;SDS011;42461;53.192;5.646;2022-09-30T02:52:14;2.47;;;2.28;;
56577;SDS011;42461;53.192;5.646;2022-09-30T02:57:21;2.70;;;2.50;;
56577;SDS011;42461;53.192;5.646;2022-09-30T02:59:52;2.33;;;2.10;;
56577;SDS011;42461;53.192;5.646;2022-09-30T03:02:18;2.63;;;2.40;;
56577;SDS011;42461;53.192;5.646;2022-09-30T03:04:45;2.38;;;2.17;;
56577;SDS011;42461;53.192;5.646;2022-09-30T03:07:11;3.25;;;2.30;;
56577;SDS011;42461;53.192;5.646;2022-09-30T03:09:37;2.50;;;2.30;;
56577;SDS011;42461;53.192;5.646;2022-09-30T03:22:59;2.65;;;2.45;;
56577;SDS011;42461;53.192;5.646;2022-09-30T03:28:21;3.00;;;2.60;;
56577;SDS011;42461;53.192;5.646;2022-09-30T03:33:32;3.42;;;2.70;;
56577;SDS011;42461;53.192;5.646;2022-09-30T03:36:22;3.45;;;3.15;;
56577;SDS011;42461;53.192;5.646;2022-09-30T03:38:52;3.67;;;3.25;;
56577;SDS011;42461;53.192;5.646;2022-09-30T03:44:08;2.70;;;2.50;;
56577;SDS011;42461;53.192;5.646;2022-09-30T03:46:39;2.45;;;2.25;;
56577;SDS011;42461;53.192;5.646;2022-09-30T03:49:29;2.83;;;2.63;;
56577;SDS011;42461;53.192;5.646;2022-09-30T03:51:53;2.80;;;2.60;;
56577;SDS011;42461;53.192;5.646;2022-09-30T03:54:19;2.97;;;2.78;;
56577;SDS011;42461;53.192;5.646;2022-09-30T03:56:46;2.80;;;2.30;;
56577;SDS011;42461;53.192;5.646;2022-09-30T03:59:22;3.20;;;2.75;;
56577;SDS011;42461;53.192;5.646;2022-09-30T04:01:49;2.90;;;2.70;;
56577;SDS011;42461;53.192;5.646;2022-09-30T04:04:15;3.13;;;2.92;;
56577;SDS011;42461;53.192;5.646;2022-09-30T04:06:42;3.15;;;2.85;;
56577;SDS011;42461;53.192;5.646;2022-09-30T04:09:08;3.70;;;3.30;;
56577;SDS011;42461;53.192;5.646;2022-09-30T04:11:34;3.97;;;3.65;;
56577;SDS011;42461;53.192;5.646;2022-09-30T04:14:00;3.78;;;3.47;;
56577;SDS011;42461;53.192;5.646;2022-09-30T04:16:30;3.95;;;3.65;;
56577;SDS011;42461;53.192;5.646;2022-09-30T04:18:56;4.82;;;3.50;;
56577;SDS011;42461;53.192;5.646;2022-09-30T04:21:22;3.60;;;3.30;;
56577;SDS011;42461;53.192;5.646;2022-09-30T04:23:48;3.53;;;3.22;;
56577;SDS011;42461;53.192;5.646;2022-09-30T04:26:15;4.05;;;3.65;;
56577;SDS011;42461;53.192;5.646;2022-09-30T04:28:43;3.90;;;3.50;;
56577;SDS011;42461;53.192;5.646;2022-09-30T04:31:10;4.20;;;3.80;;
56577;SDS011;42461;53.192;5.646;2022-09-30T04:33:36;4.07;;;3.67;;
56577;SDS011;42461;53.192;5.646;2022-09-30T04:36:03;3.92;;;3.40;;
56577;SDS011;42461;53.192;5.646;2022-09-30T04:38:29;4.15;;;3.75;;
56577;SDS011;42461;53.192;5.646;2022-09-30T04:40:56;4.10;;;3.70;;
56577;SDS011;42461;53.192;5.646;2022-09-30T04:43:23;4.60;;;4.20;;
56577;SDS011;42461;53.192;5.646;2022-09-30T04:45:50;4.13;;;3.83;;
56577;SDS011;42461;53.192;5.646;2022-09-30T04:48:19;4.50;;;4.10;;
56577;SDS011;42461;53.192;5.646;2022-09-30T04:50:47;4.10;;;3.80;;
56577;SDS011;42461;53.192;5.646;2022-09-30T04:53:13;3.28;;;2.97;;
56577;SDS011;42461;53.192;5.646;2022-09-30T04:55:40;3.25;;;2.80;;
56577;SDS011;42461;53.192;5.646;2022-09-30T04:58:06;3.00;;;2.72;;
56577;SDS011;42461;53.192;5.646;2022-09-30T05:00:33;7.50;;;3.35;;
56577;SDS011;42461;53.192;5.646;2022-09-30T05:02:59;3.45;;;3.15;;
56577;SDS011;42461;53.192;5.646;2022-09-30T05:05:25;17.77;;;4.95;;
56577;SDS011;42461;53.192;5.646;2022-09-30T05:07:51;31.63;;;5.70;;
56577;SDS011;42461;53.192;5.646;2022-09-30T05:10:17;30.30;;;4.97;;
56577;SDS011;42461;53.192;5.646;2022-09-30T05:12:43;9.93;;;4.05;;
56577;SDS011;42461;53.192;5.646;2022-09-30T05:15:10;12.05;;;4.05;;
56577;SDS011;42461;53.192;5.646;2022-09-30T05:17:36;22.58;;;4.82;;
56577;SDS011;42461;53.192;5.646;2022-09-30T05:20:02;8.02;;;3.53;;
56577;SDS011;42461;53.192;5.646;2022-09-30T05:22:29;5.50;;;2.80;;
56577;SDS011;42461;53.192;5.646;2022-09-30T05:24:55;88.03;;;7.30;;
56577;SDS011;42461;53.192;5.646;2022-09-30T05:27:21;30.20;;;5.22;;
56577;SDS011;42461;53.192;5.646;2022-09-30T05:29:48;3.90;;;3.60;;
56577;SDS011;42461;53.192;5.646;2022-09-30T05:32:14;6.45;;;3.80;;
56577;SDS011;42461;53.192;5.646;2022-09-30T05:34:40;3.35;;;3.10;;
56577;SDS011;42461;53.192;5.646;2022-09-30T05:37:06;8.05;;;3.30;;
56577;SDS011;42461;53.192;5.646;2022-09-30T05:39:33;3.28;;;2.97;;
56577;SDS011;42461;53.192;5.646;2022-09-30T05:41:59;3.40;;;3.10;;
56577;SDS011;42461;53.192;5.646;2022-09-30T05:44:25;3.47;;;3.05;;
56577;SDS011;42461;53.192;5.646;2022-09-30T05:46:51;3.92;;;3.53;;
56577;SDS011;42461;53.192;5.646;2022-09-30T05:49:17;3.40;;;3.10;;
56577;SDS011;42461;53.192;5.646;2022-09-30T05:51:43;4.28;;;3.22;;
56577;SDS011;42461;53.192;5.646;2022-09-30T05:54:10;3.20;;;2.88;;
56577;SDS011;42461;53.192;5.646;2022-09-30T05:56:36;2.63;;;2.42;;
56577;SDS011;42461;53.192;5.646;2022-09-30T05:59:03;3.22;;;2.65;;
56577;SDS011;42461;53.192;5.646;2022-09-30T06:01:29;2.65;;;2.45;;
56577;SDS011;42461;53.192;5.646;2022-09-30T06:03:55;3.10;;;2.80;;
56577;SDS011;42461;53.192;5.646;2022-09-30T06:06:21;2.28;;;2.08;;
56577;SDS011;42461;53.192;5.646;2022-09-30T06:08:47;2.47;;;1.90;;
56577;SDS011;42461;53.192;5.646;2022-09-30T06:11:15;1.70;;;1.60;;
56577;SDS011;42461;53.192;5.646;2022-09-30T06:13:41;2.40;;;1.70;;
56577;SDS011;42461;53.192;5.646;2022-09-30T06:16:08;2.42;;;2.22;;
56577;SDS011;42461;53.192;5.646;2022-09-30T06:18:34;2.40;;;2.20;;
56577;SDS011;42461;53.192;5.646;2022-09-30T06:21:02;2.60;;;2.40;;
56577;SDS011;42461;53.192;5.646;2022-09-30T06:23:29;2.63;;;2.42;;
56577;SDS011;42461;53.192;5.646;2022-09-30T06:25:55;2.40;;;2.20;;
56577;SDS011;42461;53.192;5.646;2022-09-30T06:28:21;3.03;;;1.88;;
56577;SDS011;42461;53.192;5.646;2022-09-30T06:30:48;2.67;;;2.20;;
56577;SDS011;42461;53.192;5.646;2022-09-30T06:33:14;2.50;;;2.30;;
56577;SDS011;42461;53.192;5.646;2022-09-30T06:35:41;3.05;;;2.55;;
56577;SDS011;42461;53.192;5.646;2022-09-30T06:38:08;3.88;;;2.60;;
56577;SDS011;42461;53.192;5.646;2022-09-30T06:40:34;4.45;;;2.40;;
56577;SDS011;42461;53.192;5.646;2022-09-30T06:43:00;3.33;;;2.70;;
56577;SDS011;42461;53.192;5.646;2022-09-30T06:45:27;5.03;;;2.60;;
56577;SDS011;42461;53.192;5.646;2022-09-30T06:47:57;4.13;;;3.35;;
56577;SDS011;42461;53.192;5.646;2022-09-30T06:50:23;3.47;;;2.90;;
56577;SDS011;42461;53.192;5.646;2022-09-30T06:52:49;3.55;;;3.25;;
56577;SDS011;42461;53.192;5.646;2022-09-30T06:55:15;3.97;;;3.45;;
56577;SDS011;42461;53.192;5.646;2022-09-30T06:57:41;4.60;;;3.22;;
56577;SDS011;42461;53.192;5.646;2022-09-30T07:00:09;3.78;;;2.85;;
56577;SDS011;42461;53.192;5.646;2022-09-30T07:02:35;4.13;;;3.70;;
56577;SDS011;42461;53.192;5.646;2022-09-30T07:05:02;5.32;;;4.00;;
56577;SDS011;42461;53.192;5.646;2022-09-30T07:07:28;4.47;;;3.55;;
56577;SDS011;42461;53.192;5.646;2022-09-30T07:09:57;4.43;;;3.90;;
56577;SDS011;42461;53.192;5.646;2022-09-30T07:12:23;4.38;;;3.97;;
56577;SDS011;42461;53.192;5.646;2022-09-30T07:14:50;5.30;;;4.35;;
56577;SDS011;42461;53.192;5.646;2022-09-30T07:17:16;4.95;;;4.43;;
56577;SDS011;42461;53.192;5.646;2022-09-30T07:19:42;5.45;;;4.18;;
56577;SDS011;42461;53.192;5.646;2022-09-30T07:22:08;4.40;;;3.97;;
56577;SDS011;42461;53.192;5.646;2022-09-30T07:24:57;5.25;;;4.00;;
56577;SDS011;42461;53.192;5.646;2022-09-30T07:27:24;5.47;;;3.35;;
56577;SDS011;42461;53.192;5.646;2022-09-30T07:29:50;5.22;;;3.50;;
56577;SDS011;42461;53.192;5.646;2022-09-30T07:32:16;3.70;;;3.17;;
56577;SDS011;42461;53.192;5.646;2022-09-30T07:34:43;5.95;;;3.42;;
56577;SDS011;42461;53.192;5.646;2022-09-30T07:37:10;4.20;;;2.85;;
56577;SDS011;42461;53.192;5.646;2022-09-30T07:39:38;3.72;;;3.15;;
56577;SDS011;42461;53.192;5.646;2022-09-30T07:42:04;3.63;;;3.33;;
56577;SDS011;42461;53.192;5.646;2022-09-30T07:44:30;4.38;;;3.13;;
56577;SDS011;42461;53.192;5.646;2022-09-30T07:46:56;3.47;;;3.17;;
56577;SDS011;42461;53.192;5.646;2022-09-30T07:49:23;3.35;;;2.83;;
56577;SDS011;42461;53.192;5.646;2022-09-30T07:51:50;5.38;;;3.05;;
56577;SDS011;42461;53.192;5.646;2022-09-30T07:54:17;3.33;;;3.00;;
56577;SDS011;42461;53.192;5.646;2022-09-30T07:56:44;3.55;;;2.85;;
56577;SDS011;42461;53.192;5.646;2022-09-30T07:59:11;4.80;;;3.00;;
56577;SDS011;42461;53.192;5.646;2022-09-30T08:01:37;2.95;;;2.55;;
56577;SDS011;42461;53.192;5.646;2022-09-30T08:04:05;3.45;;;3.15;;
56577;SDS011;42461;53.192;5.646;2022-09-30T08:06:31;3.45;;;2.72;;
56577;SDS011;42461;53.192;5.646;2022-09-30T08:09:00;3.35;;;3.05;;
56577;SDS011;42461;53.192;5.646;2022-09-30T08:11:26;3.13;;;2.83;;
56577;SDS011;42461;53.192;5.646;2022-09-30T08:13:53;3.58;;;2.83;;
56577;SDS011;42461;53.192;5.646;2022-09-30T08:16:19;3.40;;;2.80;;
56577;SDS011;42461;53.192;5.646;2022-09-30T08:18:46;3.42;;;2.83;;
56577;SDS011;42461;53.192;5.646;2022-09-30T08:21:12;3.05;;;2.80;;
56577;SDS011;42461;53.192;5.646;2022-09-30T08:23:38;2.75;;;2.38;;
56577;SDS011;42461;53.192;5.646;2022-09-30T08:26:08;3.08;;;2.17;;
56577;SDS011;42461;53.192;5.646;2022-09-30T08:28:34;2.75;;;2.50;;
56577;SDS011;42461;53.192;5.646;2022-09-30T08:31:05;3.40;;;2.53;;
56577;SDS011;42461;53.192;5.646;2022-09-30T08:33:31;3.25;;;2.38;;
56577;SDS011;42461;53.192;5.646;2022-09-30T08:36:01;2.72;;;2.38;;
56577;SDS011;42461;53.192;5.646;2022-09-30T08:38:28;2.80;;;2.60;;
56577;SDS011;42461;53.192;5.646;2022-09-30T08:41:06;2.55;;;2.33;;
56577;SDS011;42461;53.192;5.646;2022-09-30T08:51:19;3.28;;;2.25;;
56577;SDS011;42461;53.192;5.646;2022-09-30T08:53:48;2.38;;;2.00;;
56577;SDS011;42461;53.192;5.646;2022-09-30T08:56:20;2.30;;;2.10;;
56577;SDS011;42461;53.192;5.646;2022-09-30T08:58:47;2.13;;;1.90;;
56577;SDS011;42461;53.192;5.646;2022-09-30T09:03:43;2.30;;;2.10;;
56577;SDS011;42461;53.192;5.646;2022-09-30T09:13:48;2.97;;;2.30;;
56577;SDS011;42461;53.192;5.646;2022-09-30T09:23:47;3.00;;;2.70;;
56577;SDS011;42461;53.192;5.646;2022-09-30T09:26:14;4.68;;;2.95;;
56577;SDS011;42461;53.192;5.646;2022-09-30T09:28:45;3.28;;;2.80;;
56577;SDS011;42461;53.192;5.646;2022-09-30T09:31:12;3.75;;;2.90;;
56577;SDS011;42461;53.192;5.646;2022-09-30T09:33:40;5.00;;;3.03;;
56577;SDS011;42461;53.192;5.646;2022-09-30T09:43:47;2.33;;;2.13;;
56577;SDS011;42461;53.192;5.646;2022-09-30T09:51:47;4.25;;;1.88;;
56577;SDS011;42461;53.192;5.646;2022-09-30T09:54:18;5.10;;;2.17;;
56577;SDS011;42461;53.192;5.646;2022-09-30T09:56:45;5.97;;;2.20;;
56577;SDS011;42461;53.192;5.646;2022-09-30T09:59:15;2.75;;;2.35;;
56577;SDS011;42461;53.192;5.646;2022-09-30T10:01:46;3.05;;;2.25;;
56577;SDS011;42461;53.192;5.646;2022-09-30T10:04:21;3.75;;;2.20;;
56577;SDS011;42461;53.192;5.646;2022-09-30T10:11:47;1.65;;;1.55;;
56577;SDS011;42461;53.192;5.646;2022-09-30T10:14:16;1.95;;;1.70;;
56577;SDS011;42461;53.192;5.646;2022-09-30T10:16:44;1.40;;;1.30;;
56577;SDS011;42461;53.192;5.646;2022-09-30T10:19:20;1.80;;;1.35;;
56577;SDS011;42461;53.192;5.646;2022-09-30T10:21:47;3.40;;;1.90;;
56577;SDS011;42461;53.192;5.646;2022-09-30T10:24:29;2.47;;;1.40;;
56577;SDS011;42461;53.192;5.646;2022-09-30T10:26:55;2.20;;;1.67;;
56577;SDS011;42461;53.192;5.646;2022-09-30T10:29:26;1.90;;;1.60;;
56577;SDS011;42461;53.192;5.646;2022-09-30T10:31:56;2.47;;;2.13;;
56577;SDS011;42461;53.192;5.646;2022-09-30T10:34:24;2.40;;;2.20;;
56577;SDS011;42461;53.192;5.646;2022-09-30T10:36:51;3.70;;;2.40;;
56577;SDS011;42461;53.192;5.646;2022-09-30T10:39:19;4.35;;;2.75;;
56577;SDS011;42461;53.192;5.646;2022-09-30T10:41:51;3.15;;;2.20;;
56577;SDS011;42461;53.192;5.646;2022-09-30T10:44:25;2.40;;;2.20;;
56577;SDS011;42461;53.192;5.646;2022-09-30T10:46:52;2.90;;;2.67;;
56577;SDS011;42461;53.192;5.646;2022-09-30T10:49:27;2.75;;;2.53;;
56577;SDS011;42461;53.192;5.646;2022-09-30T10:51:55;3.72;;;2.38;;
56577;SDS011;42461;53.192;5.646;2022-09-30T10:54:33;2.97;;;2.20;;
56577;SDS011;42461;53.192;5.646;2022-09-30T10:57:00;2.08;;;1.88;;
56577;SDS011;42461;53.192;5.646;2022-09-30T10:59:30;3.30;;;2.15;;
56577;SDS011;42461;53.192;5.646;2022-09-30T11:02:14;2.28;;;2.10;;
56577;SDS011;42461;53.192;5.646;2022-09-30T11:04:47;2.80;;;2.00;;
56577;SDS011;42461;53.192;5.646;2022-09-30T11:07:20;1.52;;;1.38;;
56577;SDS011;42461;53.192;5.646;2022-09-30T11:09:55;1.60;;;1.50;;
56577;SDS011;42461;53.192;5.646;2022-09-30T11:12:44;2.47;;;1.55;;
56577;SDS011;42461;53.192;5.646;2022-09-30T11:15:17;2.58;;;2.30;;
56577;SDS011;42461;53.192;5.646;2022-09-30T11:25:16;2.45;;;2.00;;
56577;SDS011;42461;53.192;5.646;2022-09-30T11:32:48;1.92;;;1.80;;
56577;SDS011;42461;53.192;5.646;2022-09-30T11:37:59;1.73;;;1.63;;
56577;SDS011;42461;53.192;5.646;2022-09-30T11:40:36;2.00;;;1.73;;
56577;SDS011;42461;53.192;5.646;2022-09-30T11:51:14;4.47;;;1.75;;
56577;SDS011;42461;53.192;5.646;2022-09-30T11:56:23;2.75;;;1.40;;
56577;SDS011;42461;53.192;5.646;2022-09-30T11:58:52;1.77;;;1.60;;
56577;SDS011;42461;53.192;5.646;2022-09-30T12:01:27;2.80;;;2.00;;
56577;SDS011;42461;53.192;5.646;2022-09-30T12:04:14;3.08;;;1.95;;
56577;SDS011;42461;53.192;5.646;2022-09-30T12:09:18;2.30;;;2.10;;
56577;SDS011;42461;53.192;5.646;2022-09-30T12:11:48;3.20;;;2.33;;
56577;SDS011;42461;53.192;5.646;2022-09-30T12:14:17;2.53;;;2.20;;
56577;SDS011;42461;53.192;5.646;2022-09-30T12:16:45;2.30;;;2.10;;
56577;SDS011;42461;53.192;5.646;2022-09-30T12:19:14;2.92;;;2.35;;
56577;SDS011;42461;53.192;5.646;2022-09-30T12:24:26;4.10;;;2.80;;
56577;SDS011;42461;53.192;5.646;2022-09-30T12:26:54;2.55;;;2.25;;
56577;SDS011;42461;53.192;5.646;2022-09-30T12:29:21;5.25;;;2.47;;
56577;SDS011;42461;53.192;5.646;2022-09-30T12:35:01;3.70;;;2.60;;
56577;SDS011;42461;53.192;5.646;2022-09-30T12:37:38;3.67;;;2.80;;
56577;SDS011;42461;53.192;5.646;2022-09-30T12:48:09;3.53;;;3.22;;
56577;SDS011;42461;53.192;5.646;2022-09-30T12:50:40;3.45;;;3.10;;
56577;SDS011;42461;53.192;5.646;2022-09-30T12:53:26;3.30;;;2.88;;
56577;SDS011;42461;53.192;5.646;2022-09-30T12:55:53;3.88;;;3.47;;
56577;SDS011;42461;53.192;5.646;2022-09-30T13:00:59;4.72;;;3.67;;
56577;SDS011;42461;53.192;5.646;2022-09-30T13:03:25;3.28;;;2.97;;
56577;SDS011;42461;53.192;5.646;2022-09-30T13:05:52;4.05;;;3.45;;
56577;SDS011;42461;53.192;5.646;2022-09-30T13:10:50;5.25;;;4.32;;
56577;SDS011;42461;53.192;5.646;2022-09-30T13:15:45;4.60;;;4.18;;
56577;SDS011;42461;53.192;5.646;2022-09-30T13:21:14;4.55;;;4.15;;
56577;SDS011;42461;53.192;5.646;2022-09-30T13:23:42;5.63;;;3.80;;
56577;SDS011;42461;53.192;5.646;2022-09-30T13:28:53;4.30;;;3.38;;
56577;SDS011;42461;53.192;5.646;2022-09-30T13:31:20;4.25;;;3.30;;
56577;SDS011;42461;53.192;5.646;2022-09-30T13:34:09;3.63;;;2.95;;
56577;SDS011;42461;53.192;5.646;2022-09-30T13:39:16;3.03;;;2.47;;
56577;SDS011;42461;53.192;5.646;2022-09-30T13:41:43;3.75;;;2.58;;
56577;SDS011;42461;53.192;5.646;2022-09-30T13:44:15;5.50;;;2.28;;
56577;SDS011;42461;53.192;5.646;2022-09-30T13:46:48;2.55;;;2.33;;
56577;SDS011;42461;53.192;5.646;2022-09-30T13:49:18;2.10;;;1.90;;
56577;SDS011;42461;53.192;5.646;2022-09-30T13:51:47;2.90;;;2.30;;
56577;SDS011;42461;53.192;5.646;2022-09-30T13:56:47;2.20;;;2.00;;
56577;SDS011;42461;53.192;5.646;2022-09-30T14:08:02;2.10;;;1.90;;
56577;SDS011;42461;53.192;5.646;2022-09-30T14:20:52;3.08;;;1.90;;
56577;SDS011;42461;53.192;5.646;2022-09-30T14:23:23;2.83;;;1.90;;
56577;SDS011;42461;53.192;5.646;2022-09-30T14:25:58;2.92;;;1.83;;
56577;SDS011;42461;53.192;5.646;2022-09-30T14:28:37;2.95;;;1.80;;
56577;SDS011;42461;53.192;5.646;2022-09-30T14:31:10;2.83;;;1.70;;
56577;SDS011;42461;53.192;5.646;2022-09-30T14:33:38;1.75;;;1.60;;
56577;SDS011;42461;53.192;5.646;2022-09-30T14:36:06;2.63;;;1.70;;
56577;SDS011;42461;53.192;5.646;2022-09-30T14:38:36;2.53;;;1.60;;
56577;SDS011;42461;53.192;5.646;2022-09-30T14:41:04;1.73;;;1.60;;
56577;SDS011;42461;53.192;5.646;2022-09-30T14:43:35;2.90;;;1.73;;
56577;SDS011;42461;53.192;5.646;2022-09-30T14:46:50;2.00;;;1.80;;
56577;SDS011;42461;53.192;5.646;2022-09-30T14:48:51;2.00;;;1.60;;
56577;SDS011;42461;53.192;5.646;2022-09-30T14:51:18;2.28;;;1.73;;
56577;SDS011;42461;53.192;5.646;2022-09-30T14:53:57;2.10;;;1.90;;
56577;SDS011;42461;53.192;5.646;2022-09-30T14:56:31;3.40;;;2.03;;
56577;SDS011;42461;53.192;5.646;2022-09-30T14:58:57;4.57;;;2.25;;
56577;SDS011;42461;53.192;5.646;2022-09-30T15:01:28;2.63;;;2.05;;
56577;SDS011;42461;53.192;5.646;2022-09-30T15:04:04;4.13;;;2.28;;
56577;SDS011;42461;53.192;5.646;2022-09-30T15:06:32;3.35;;;2.10;;
56577;SDS011;42461;53.192;5.646;2022-09-30T15:09:07;4.25;;;2.22;;
56577;SDS011;42461;53.192;5.646;2022-09-30T15:11:39;3.28;;;2.08;;
56577;SDS011;42461;53.192;5.646;2022-09-30T15:14:06;2.72;;;2.10;;
56577;SDS011;42461;53.192;5.646;2022-09-30T15:16:34;4.10;;;2.50;;
56577;SDS011;42461;53.192;5.646;2022-09-30T15:19:00;5.38;;;2.90;;
56577;SDS011;42461;53.192;5.646;2022-09-30T15:21:29;3.45;;;2.88;;
56577;SDS011;42461;53.192;5.646;2022-09-30T15:23:56;3.05;;;2.75;;
56577;SDS011;42461;53.192;5.646;2022-09-30T15:26:24;3.38;;;2.60;;
56577;SDS011;42461;53.192;5.646;2022-09-30T15:28:51;3.75;;;3.15;;
56577;SDS011;42461;53.192;5.646;2022-09-30T15:31:28;3.72;;;3.13;;
56577;SDS011;42461;53.192;5.646;2022-09-30T15:33:59;4.03;;;3.40;;
56577;SDS011;42461;53.192;5.646;2022-09-30T15:36:26;5.30;;;3.70;;
56577;SDS011;42461;53.192;5.646;2022-09-30T15:38:52;5.93;;;3.50;;
56577;SDS011;42461;53.192;5.646;2022-09-30T15:41:18;4.63;;;3.47;;
56577;SDS011;42461;53.192;5.646;2022-09-30T15:43:48;4.57;;;3.95;;
56577;SDS011;42461;53.192;5.646;2022-09-30T15:48:44;3.95;;;3.50;;
56577;SDS011;42461;53.192;5.646;2022-09-30T15:51:28;5.25;;;4.20;;
56577;SDS011;42461;53.192;5.646;2022-09-30T15:53:54;4.30;;;3.88;;
56577;SDS011;42461;53.192;5.646;2022-09-30T15:59:04;5.75;;;4.07;;
56577;SDS011;42461;53.192;5.646;2022-09-30T16:06:28;5.47;;;3.75;;
56577;SDS011;42461;53.192;5.646;2022-09-30T16:11:44;5.82;;;4.47;;
56577;SDS011;42461;53.192;5.646;2022-09-30T16:14:25;4.90;;;4.40;;
56577;SDS011;42461;53.192;5.646;2022-09-30T16:16:52;4.85;;;4.22;;
56577;SDS011;42461;53.192;5.646;2022-09-30T16:19:19;5.82;;;5.00;;
56577;SDS011;42461;53.192;5.646;2022-09-30T16:21:49;4.57;;;4.18;;
56577;SDS011;42461;53.192;5.646;2022-09-30T16:26:50;5.70;;;4.47;;
56577;SDS011;42461;53.192;5.646;2022-09-30T16:29:17;5.85;;;5.15;;
56577;SDS011;42461;53.192;5.646;2022-09-30T16:31:43;6.85;;;4.90;;
56577;SDS011;42461;53.192;5.646;2022-09-30T16:34:17;7.35;;;4.90;;
56577;SDS011;42461;53.192;5.646;2022-09-30T16:36:44;7.28;;;5.10;;
56577;SDS011;42461;53.192;5.646;2022-09-30T16:39:10;5.03;;;4.53;;
56577;SDS011;42461;53.192;5.646;2022-09-30T16:41:37;5.45;;;4.95;;
56577;SDS011;42461;53.192;5.646;2022-09-30T16:44:03;5.70;;;4.85;;
56577;SDS011;42461;53.192;5.646;2022-09-30T16:46:29;5.22;;;4.72;;
56577;SDS011;42461;53.192;5.646;2022-09-30T16:48:57;5.10;;;4.70;;
56577;SDS011;42461;53.192;5.646;2022-09-30T16:51:23;5.22;;;4.72;;
56577;SDS011;42461;53.192;5.646;2022-09-30T16:53:49;5.70;;;5.00;;
56577;SDS011;42461;53.192;5.646;2022-09-30T16:56:16;5.72;;;4.93;;
56577;SDS011;42461;53.192;5.646;2022-09-30T16:58:43;5.55;;;4.90;;
56577;SDS011;42461;53.192;5.646;2022-09-30T17:01:20;5.65;;;5.15;;
56577;SDS011;42461;53.192;5.646;2022-09-30T17:03:47;5.18;;;4.63;;
56577;SDS011;42461;53.192;5.646;2022-09-30T17:06:13;5.82;;;5.22;;
56577;SDS011;42461;53.192;5.646;2022-09-30T17:08:41;5.85;;;5.25;;
56577;SDS011;42461;53.192;5.646;2022-09-30T17:11:07;6.70;;;4.55;;
56577;SDS011;42461;53.192;5.646;2022-09-30T17:13:35;5.60;;;4.88;;
56577;SDS011;42461;53.192;5.646;2022-09-30T17:16:01;8.82;;;4.53;;
56577;SDS011;42461;53.192;5.646;2022-09-30T17:18:27;5.53;;;4.70;;
56577;SDS011;42461;53.192;5.646;2022-09-30T17:20:53;5.78;;;5.03;;
56577;SDS011;42461;53.192;5.646;2022-09-30T17:23:20;6.65;;;4.97;;
56577;SDS011;42461;53.192;5.646;2022-09-30T17:25:46;5.70;;;5.10;;
56577;SDS011;42461;53.192;5.646;2022-09-30T17:28:13;5.30;;;4.80;;
56577;SDS011;42461;53.192;5.646;2022-09-30T17:30:39;5.47;;;4.75;;
56577;SDS011;42461;53.192;5.646;2022-09-30T17:33:06;4.50;;;4.10;;
56577;SDS011;42461;53.192;5.646;2022-09-30T17:35:34;5.05;;;4.43;;
56577;SDS011;42461;53.192;5.646;2022-09-30T17:38:00;4.70;;;4.30;;
56577;SDS011;42461;53.192;5.646;2022-09-30T17:40:26;6.18;;;4.45;;
56577;SDS011;42461;53.192;5.646;2022-09-30T17:43:11;5.37;;;4.03;;
56577;SDS011;42461;53.192;5.646;2022-09-30T17:45:41;5.22;;;4.35;;
56577;SDS011;42461;53.192;5.646;2022-09-30T17:48:10;6.60;;;4.32;;
56577;SDS011;42461;53.192;5.646;2022-09-30T17:50:37;6.50;;;4.70;;
56577;SDS011;42461;53.192;5.646;2022-09-30T17:53:03;5.80;;;5.20;;
56577;SDS011;42461;53.192;5.646;2022-09-30T17:55:30;6.70;;;4.90;;
56577;SDS011;42461;53.192;5.646;2022-09-30T17:57:58;6.15;;;5.47;;
56577;SDS011;42461;53.192;5.646;2022-09-30T18:00:25;8.75;;;5.55;;
56577;SDS011;42461;53.192;5.646;2022-09-30T18:02:52;7.05;;;6.25;;
56577;SDS011;42461;53.192;5.646;2022-09-30T18:05:18;6.82;;;6.22;;
56577;SDS011;42461;53.192;5.646;2022-09-30T18:07:45;7.70;;;7.00;;
56577;SDS011;42461;53.192;5.646;2022-09-30T18:10:11;8.82;;;8.02;;
56577;SDS011;42461;53.192;5.646;2022-09-30T18:12:37;8.23;;;7.43;;